Time,TemperatureF,DewpointF,PressureIn,WindDirection,WindDirectionDegrees,WindSpeedMPH,WindSpeedGustMPH,Humidity,HourlyPrecipIn,Conditions,Clouds,dailyrainin,SoftwareType,DateUTC
2013-09-19 00:12:00,66.9,65.1,29.89,SSE,157,3.2,-999.0,94,-99.99,,,0.00,Acu-Link.com,2013-09-19 04:12:00,
2013-09-19 00:27:00,66.7,64.9,29.88,South,180,2.2,-999.0,94,-99.99,,,0.00,Acu-Link.com,2013-09-19 04:27:00,
2013-09-19 00:42:00,66.7,64.9,29.88,ESE,112,3.2,-999.0,94,-99.99,,,0.00,Acu-Link.com,2013-09-19 04:42:00,
2013-09-19 00:58:00,66.7,64.9,29.88,South,180,4.2,-999.0,94,-99.99,,,0.00,Acu-Link.com,2013-09-19 04:58:00,
2013-09-19 01:13:00,66.6,65.1,29.88,SSE,157,2.2,-999.0,95,-99.99,,,0.00,Acu-Link.com,2013-09-19 05:13:00,
2013-09-19 01:28:00,66.6,65.1,29.88,SE,135,3.2,-999.0,95,-99.99,,,0.00,Acu-Link.com,2013-09-19 05:28:00,
2013-09-19 01:43:00,66.6,65.1,29.87,ESE,112,2.7,-999.0,95,-99.99,,,0.00,Acu-Link.com,2013-09-19 05:43:00,
2013-09-19 01:59:00,66.4,64.9,29.87,South,180,3.7,-999.0,95,-99.99,,,0.00,Acu-Link.com,2013-09-19 05:59:00,
2013-09-19 02:14:00,66.4,64.9,29.87,SSE,157,4.2,-999.0,95,-99.99,,,0.00,Acu-Link.com,2013-09-19 06:14:00,
2013-09-19 02:29:00,66.4,64.9,29.87,South,180,3.2,-999.0,95,-99.99,,,0.00,Acu-Link.com,2013-09-19 06:29:00,
2013-09-19 02:44:00,66.4,64.9,29.87,SSE,157,2.7,-999.0,95,-99.99,,,0.00,Acu-Link.com,2013-09-19 06:44:00,
2013-09-19 03:00:00,66.2,64.7,29.87,South,180,3.7,-999.0,95,-99.99,,,0.00,Acu-Link.com,2013-09-19 07:00:00,
2013-09-19 03:15:00,66.2,64.7,29.87,SSE,157,3.7,-999.0,95,-99.99,,,0.00,Acu-Link.com,2013-09-19 07:15:00,
2013-09-19 03:30:00,65.8,64.6,29.87,South,180,2.7,-999.0,96,-99.99,,,0.00,Acu-Link.com,2013-09-19 07:30:00,
2013-09-19 03:46:00,65.7,64.5,29.87,SE,135,2.2,-999.0,96,-99.99,,,0.00,Acu-Link.com,2013-09-19 07:46:00,
2013-09-19 04:01:00,65.7,64.5,29.87,SSE,157,3.2,-999.0,96,-99.99,,,0.00,Acu-Link.com,2013-09-19 08:01:00,
2013-09-19 04:16:00,65.7,64.5,29.87,SSE,157,2.2,-999.0,96,-99.99,,,0.00,Acu-Link.com,2013-09-19 08:16:00,
2013-09-19 04:32:00,65.5,64.3,29.87,SE,135,3.7,-999.0,96,-99.99,,,0.00,Acu-Link.com,2013-09-19 08:32:00,
2013-09-19 04:47:00,65.5,64.6,29.87,SSW,202,2.7,-999.0,97,-99.99,,,0.00,Acu-Link.com,2013-09-19 08:47:00,
2013-09-19 05:02:00,65.3,64.4,29.87,SSE,157,3.2,-999.0,97,-99.99,,,0.00,Acu-Link.com,2013-09-19 09:02:00,
2013-09-19 05:17:00,65.1,64.5,29.87,SSE,157,3.2,-999.0,98,-99.99,,,0.00,Acu-Link.com,2013-09-19 09:17:00,
2013-09-19 05:32:00,65.1,64.5,29.86,SSE,157,2.7,-999.0,98,-99.99,,,0.00,Acu-Link.com,2013-09-19 09:32:00,
2013-09-19 05:47:00,64.9,64.3,29.87,South,180,2.2,-999.0,98,-99.99,,,0.00,Acu-Link.com,2013-09-19 09:47:00,
2013-09-19 06:02:00,64.9,64.3,29.87,South,180,2.7,-999.0,98,-99.99,,,0.00,Acu-Link.com,2013-09-19 10:02:00,
2013-09-19 06:17:00,64.8,64.2,29.87,SSE,157,2.7,-999.0,98,-99.99,,,0.00,Acu-Link.com,2013-09-19 10:17:00,
2013-09-19 06:32:00,64.4,63.8,29.87,SE,135,4.2,-999.0,98,-99.99,,,0.00,Acu-Link.com,2013-09-19 10:32:00,
2013-09-19 06:48:00,64.4,63.8,29.88,SSE,157,2.7,-999.0,98,-99.99,,,0.00,Acu-Link.com,2013-09-19 10:48:00,
2013-09-19 07:03:00,64.2,63.9,29.88,ESE,112,0.0,-999.0,99,-99.99,,,0.00,Acu-Link.com,2013-09-19 11:03:00,
2013-09-19 07:18:00,64.4,64.1,29.90,South,180,1.7,-999.0,99,-99.99,,,0.00,Acu-Link.com,2013-09-19 11:18:00,
2013-09-19 07:33:00,64.8,64.5,29.90,SSE,157,2.2,-999.0,99,-99.99,,,0.00,Acu-Link.com,2013-09-19 11:33:00,
2013-09-19 07:49:00,64.9,64.3,29.90,SSE,157,2.7,-999.0,98,-99.99,,,0.00,Acu-Link.com,2013-09-19 11:49:00,
2013-09-19 08:04:00,65.3,64.4,29.90,SSE,157,3.2,-999.0,97,-99.99,,,0.00,Acu-Link.com,2013-09-19 12:04:00,
2013-09-19 08:19:00,65.8,64.6,29.90,SE,135,2.7,-999.0,96,-99.99,,,0.00,Acu-Link.com,2013-09-19 12:19:00,
2013-09-19 08:34:00,66.7,65.2,29.90,SW,225,3.7,-999.0,95,-99.99,,,0.00,Acu-Link.com,2013-09-19 12:34:00,
2013-09-19 08:49:00,67.8,65.4,29.90,SE,135,5.3,-999.0,92,-99.99,,,0.00,Acu-Link.com,2013-09-19 12:49:00,
2013-09-19 09:04:00,69.1,66.4,29.91,West,270,4.7,-999.0,91,-99.99,,,0.00,Acu-Link.com,2013-09-19 13:04:00,
2013-09-19 09:19:00,70.2,66.5,29.91,West,270,5.8,-999.0,88,-99.99,,,0.00,Acu-Link.com,2013-09-19 13:19:00,
2013-09-19 09:35:00,70.3,66.2,29.90,SW,225,4.7,-999.0,87,-99.99,,,0.00,Acu-Link.com,2013-09-19 13:35:00,
2013-09-19 09:50:00,70.5,66.4,29.91,SSW,202,4.2,-999.0,87,-99.99,,,0.00,Acu-Link.com,2013-09-19 13:50:00,
2013-09-19 10:05:00,70.9,66.8,29.91,South,180,4.2,-999.0,87,-99.99,,,0.00,Acu-Link.com,2013-09-19 14:05:00,
2013-09-19 10:20:00,71.1,67.0,29.92,SSW,202,3.2,-999.0,87,-99.99,,,0.00,Acu-Link.com,2013-09-19 14:20:00,
2013-09-19 10:36:00,71.2,67.1,29.92,WSW,247,3.2,-999.0,87,-99.99,,,0.00,Acu-Link.com,2013-09-19 14:36:00,
2013-09-19 10:51:00,71.6,67.2,29.92,WSW,247,3.2,-999.0,86,-99.99,,,0.00,Acu-Link.com,2013-09-19 14:51:00,
2013-09-19 11:06:00,71.2,66.8,29.94,West,270,2.2,-999.0,86,-99.99,,,0.00,Acu-Link.com,2013-09-19 15:06:00,
2013-09-19 11:22:00,70.3,66.6,29.94,West,270,2.2,-999.0,88,-99.99,,,0.00,Acu-Link.com,2013-09-19 15:22:00,
2013-09-19 11:37:00,70.7,67.3,29.93,West,270,3.7,-999.0,89,-99.99,,,0.00,Acu-Link.com,2013-09-19 15:37:00,
2013-09-19 11:52:00,70.9,67.5,29.93,SW,225,4.2,-999.0,89,-99.99,,,0.00,Acu-Link.com,2013-09-19 15:52:00,
2013-09-19 12:07:00,69.6,67.8,29.92,West,270,2.7,-999.0,94,-99.99,,,0.01,Acu-Link.com,2013-09-19 16:07:00,
2013-09-19 12:22:00,70.0,67.9,29.91,WSW,247,2.7,-999.0,93,-99.99,,,0.02,Acu-Link.com,2013-09-19 16:22:00,
2013-09-19 12:38:00,70.7,68.9,29.91,SW,225,2.2,-999.0,94,-99.99,,,0.02,Acu-Link.com,2013-09-19 16:38:00,
2013-09-19 12:53:00,74.3,71.5,29.90,West,270,3.2,-999.0,91,-99.99,,,0.02,Acu-Link.com,2013-09-19 16:53:00,
2013-09-19 13:08:00,74.8,70.0,29.89,WSW,247,4.7,-999.0,85,-99.99,,,0.02,Acu-Link.com,2013-09-19 17:08:00,
2013-09-19 13:24:00,75.2,70.0,29.89,WSW,247,5.3,-999.0,84,-99.99,,,0.02,Acu-Link.com,2013-09-19 17:24:00,
2013-09-19 13:39:00,75.0,69.5,29.89,WSW,247,6.3,-999.0,83,-99.99,,,0.02,Acu-Link.com,2013-09-19 17:39:00,
2013-09-19 13:54:00,75.9,70.4,29.89,WSW,247,4.2,-999.0,83,-99.99,,,0.02,Acu-Link.com,2013-09-19 17:54:00,
2013-09-19 14:10:00,75.7,70.2,29.88,SW,225,2.7,-999.0,83,-99.99,,,0.02,Acu-Link.com,2013-09-19 18:10:00,
2013-09-19 14:25:00,76.1,70.2,29.88,WSW,247,4.2,-999.0,82,-99.99,,,0.02,Acu-Link.com,2013-09-19 18:25:00,
2013-09-19 14:40:00,75.9,70.4,29.87,WSW,247,4.7,-999.0,83,-99.99,,,0.02,Acu-Link.com,2013-09-19 18:40:00,
2013-09-19 14:55:00,76.5,70.6,29.86,WSW,247,4.2,-999.0,82,-99.99,,,0.02,Acu-Link.com,2013-09-19 18:55:00,
2013-09-19 15:10:00,76.5,70.6,29.85,West,270,4.7,-999.0,82,-99.99,,,0.02,Acu-Link.com,2013-09-19 19:10:00,
2013-09-19 15:25:00,76.6,70.3,29.84,West,270,4.7,-999.0,81,-99.99,,,0.02,Acu-Link.com,2013-09-19 19:25:00,
2013-09-19 15:41:00,77.2,70.9,29.84,SSW,202,2.2,-999.0,81,-99.99,,,0.02,Acu-Link.com,2013-09-19 19:41:00,
2013-09-19 15:56:00,78.1,71.0,29.84,SSW,202,2.2,-999.0,79,-99.99,,,0.02,Acu-Link.com,2013-09-19 19:56:00,
2013-09-19 16:11:00,78.1,70.3,29.82,WSW,247,4.2,-999.0,77,-99.99,,,0.02,Acu-Link.com,2013-09-19 20:11:00,
2013-09-19 16:27:00,78.1,71.0,29.83,SW,225,3.2,-999.0,79,-99.99,,,0.02,Acu-Link.com,2013-09-19 20:27:00,
2013-09-19 16:42:00,79.0,70.8,29.83,WSW,247,3.7,-999.0,76,-99.99,,,0.02,Acu-Link.com,2013-09-19 20:42:00,
2013-09-19 16:57:00,79.2,71.0,29.84,SSE,157,3.7,-999.0,76,-99.99,,,0.02,Acu-Link.com,2013-09-19 20:57:00,
2013-09-19 17:12:00,80.2,70.7,29.84,WSW,247,5.8,-999.0,73,-99.99,,,0.02,Acu-Link.com,2013-09-19 21:12:00,
2013-09-19 17:28:00,80.1,71.0,29.84,SSW,202,1.7,-999.0,74,-99.99,,,0.02,Acu-Link.com,2013-09-19 21:28:00,
2013-09-19 17:43:00,79.5,71.3,29.83,SW,225,1.7,-999.0,76,-99.99,,,0.02,Acu-Link.com,2013-09-19 21:43:00,
2013-09-19 17:58:00,78.4,70.6,29.82,SE,135,3.7,-999.0,77,-99.99,,,0.02,Acu-Link.com,2013-09-19 21:58:00,
2013-09-19 18:13:00,78.4,70.6,29.83,WSW,247,1.1,-999.0,77,-99.99,,,0.02,Acu-Link.com,2013-09-19 22:13:00,
2013-09-19 18:29:00,78.1,70.7,29.82,SSE,157,3.7,-999.0,78,-99.99,,,0.02,Acu-Link.com,2013-09-19 22:29:00,
2013-09-19 18:44:00,77.5,70.5,29.82,West,270,2.7,-999.0,79,-99.99,,,0.02,Acu-Link.com,2013-09-19 22:44:00,
2013-09-19 18:59:00,77.4,70.7,29.82,SSE,157,1.7,-999.0,80,-99.99,,,0.02,Acu-Link.com,2013-09-19 22:59:00,
2013-09-19 19:15:00,76.6,70.3,29.81,SSE,157,0.0,-999.0,81,-99.99,,,0.02,Acu-Link.com,2013-09-19 23:15:00,
2013-09-19 19:30:00,75.9,70.4,29.82,ENE,67,0.0,-999.0,83,-99.99,,,0.02,Acu-Link.com,2013-09-19 23:30:00,
2013-09-19 19:45:00,74.7,69.5,29.82,ENE,67,0.0,-999.0,84,-99.99,,,0.02,Acu-Link.com,2013-09-19 23:45:00,
2013-09-19 20:00:00,73.6,69.1,29.81,SSW,202,0.0,-999.0,86,-99.99,,,0.02,Acu-Link.com,2013-09-20 00:00:00,
2013-09-19 20:15:00,73.2,69.4,29.80,South,180,0.0,-999.0,88,-99.99,,,0.02,Acu-Link.com,2013-09-20 00:15:00,
2013-09-19 20:31:00,73.0,69.2,29.81,SSE,157,0.0,-999.0,88,-99.99,,,0.02,Acu-Link.com,2013-09-20 00:31:00,
2013-09-19 20:46:00,73.0,69.6,29.81,South,180,2.2,-999.0,89,-99.99,,,0.02,Acu-Link.com,2013-09-20 00:46:00,
2013-09-19 21:01:00,72.5,69.4,29.81,SSE,157,0.0,-999.0,90,-99.99,,,0.02,Acu-Link.com,2013-09-20 01:01:00,
2013-09-19 21:17:00,72.1,69.0,29.80,South,180,1.7,-999.0,90,-99.99,,,0.02,Acu-Link.com,2013-09-20 01:17:00,
2013-09-19 21:32:00,72.1,69.3,29.80,South,180,2.2,-999.0,91,-99.99,,,0.02,Acu-Link.com,2013-09-20 01:32:00,
2013-09-19 21:47:00,72.1,69.3,29.80,SSE,157,4.2,-999.0,91,-99.99,,,0.02,Acu-Link.com,2013-09-20 01:47:00,
2013-09-19 22:02:00,72.3,69.5,29.80,ESE,112,2.2,-999.0,91,-99.99,,,0.02,Acu-Link.com,2013-09-20 02:02:00,
2013-09-19 22:18:00,72.1,69.3,29.80,SSE,157,2.2,-999.0,91,-99.99,,,0.02,Acu-Link.com,2013-09-20 02:18:00,
2013-09-19 22:33:00,72.3,69.5,29.80,SSE,157,5.8,-999.0,91,-99.99,,,0.02,Acu-Link.com,2013-09-20 02:33:00,
2013-09-19 22:48:00,72.1,69.3,29.80,SSE,157,3.2,-999.0,91,-99.99,,,0.02,Acu-Link.com,2013-09-20 02:48:00,
2013-09-19 23:03:00,72.0,69.2,29.80,SSE,157,2.7,-999.0,91,-99.99,,,0.02,Acu-Link.com,2013-09-20 03:03:00,
2013-09-19 23:19:00,71.8,69.0,29.80,SSE,157,3.2,-999.0,91,-99.99,,,0.02,Acu-Link.com,2013-09-20 03:19:00,
2013-09-19 23:34:00,71.8,69.0,29.80,SSW,202,3.2,-999.0,91,-99.99,,,0.02,Acu-Link.com,2013-09-20 03:34:00,
2013-09-19 23:49:00,71.6,68.8,29.80,SSW,202,1.7,-999.0,91,-99.99,,,0.02,Acu-Link.com,2013-09-20 03:49:00,